Time;durP1;ratioP1;P1;durP2;ratioP2;P2;SDS_P1;SDS_P2;PMS_P1;PMS_P2;Temp;Humidity;BMP_temperature;BMP_pressure;BME280_temperature;BME280_humidity;BME280_pressure;Samples;Min_cycle;Max_cycle;Signal;HPM_P1;HPM_P2
2023/10/26 00:00:00;;;;;;;0.60;0.60;;;;;;;;;;5131835;27;20216;-43
2023/10/26 00:02:27;;;;;;;0.47;0.47;;;;;;;;;;5131202;27;20203;-46
2023/10/26 00:04:54;;;;;;;2.17;0.73;;;;;;;;;;5122791;27;20242;-41
2023/10/26 00:07:21;;;;;;;1.87;0.60;;;;;;;;;;5129467;27;20207;-43
2023/10/26 00:09:49;;;;;;;0.57;0.57;;;;;;;;;;5122247;27;20234;-42
2023/10/26 00:12:17;;;;;;;0.77;0.50;;;;;;;;;;5120710;27;20203;-41
2023/10/26 00:14:44;;;;;;;0.63;0.63;;;;;;;;;;5130370;27;20292;-43
2023/10/26 00:17:11;;;;;;;1.13;0.70;;;;;;;;;;5130536;27;20721;-41
2023/10/26 00:19:38;;;;;;;0.40;0.40;;;;;;;;;;5127388;27;20227;-43
2023/10/26 00:22:05;;;;;;;0.60;0.60;;;;;;;;;;5135119;27;20551;-43
2023/10/26 00:24:32;;;;;;;1.37;0.67;;;;;;;;;;5131657;27;20229;-43
2023/10/26 00:27:00;;;;;;;1.23;0.60;;;;;;;;;;5122417;27;20207;-40
2023/10/26 00:29:29;;;;;;;2.63;0.60;;;;;;;;;;5127792;27;20227;-44
2023/10/26 00:31:56;;;;;;;0.53;0.53;;;;;;;;;;5129340;27;20211;-42
2023/10/26 00:34:24;;;;;;;1.10;0.80;;;;;;;;;;5129841;27;20207;-43
2023/10/26 00:36:51;;;;;;;1.60;0.60;;;;;;;;;;5115071;27;20199;-44
2023/10/26 00:39:18;;;;;;;0.70;0.60;;;;;;;;;;5129273;27;20258;-44
2023/10/26 00:41:45;;;;;;;0.73;0.67;;;;;;;;;;5124315;27;20258;-44
2023/10/26 00:44:12;;;;;;;0.60;0.50;;;;;;;;;;5127679;27;20211;-46
2023/10/26 00:46:41;;;;;;;0.70;0.50;;;;;;;;;;5129433;27;20203;-44
2023/10/26 00:49:10;;;;;;;0.70;0.70;;;;;;;;;;5127365;27;20231;-43
2023/10/26 00:51:38;;;;;;;0.30;0.30;;;;;;;;;;5117715;27;20545;-46
2023/10/26 00:54:06;;;;;;;0.70;0.70;;;;;;;;;;5130019;27;20658;-41
2023/10/26 00:56:35;;;;;;;0.50;0.50;;;;;;;;;;5116794;27;20206;-45
2023/10/26 00:59:04;;;;;;;0.50;0.50;;;;;;;;;;5127410;27;20223;-46
2023/10/26 01:01:41;;;;;;;1.07;0.60;;;;;;;;;;5120509;27;20207;-43
2023/10/26 01:04:08;;;;;;;0.70;0.47;;;;;;;;;;5128402;27;20215;-44
2023/10/26 01:06:35;;;;;;;0.90;0.60;;;;;;;;;;5131967;27;20227;-41
2023/10/26 01:09:02;;;;;;;1.97;0.53;;;;;;;;;;5133154;27;20904;-45
2023/10/26 01:11:30;;;;;;;2.10;0.50;;;;;;;;;;5118651;27;20214;-43
2023/10/26 01:13:57;;;;;;;2.57;0.67;;;;;;;;;;5123128;27;20285;-40
2023/10/26 01:16:24;;;;;;;1.00;0.60;;;;;;;;;;5128255;27;20203;-44
2023/10/26 01:18:52;;;;;;;0.80;0.50;;;;;;;;;;5133119;27;20219;-42
2023/10/26 01:21:20;;;;;;;1.87;0.43;;;;;;;;;;5129752;27;20561;-43
2023/10/26 01:23:48;;;;;;;0.70;0.60;;;;;;;;;;5124454;27;20212;-47
2023/10/26 01:26:15;;;;;;;0.50;0.50;;;;;;;;;;5129183;27;20219;-42
2023/10/26 01:28:42;;;;;;;0.40;0.40;;;;;;;;;;5131094;27;20305;-39
2023/10/26 01:31:09;;;;;;;0.50;0.50;;;;;;;;;;5138769;27;20215;-43
2023/10/26 01:33:36;;;;;;;0.50;0.40;;;;;;;;;;5131467;27;20294;-42
2023/10/26 01:36:04;;;;;;;0.50;0.50;;;;;;;;;;5127510;27;20213;-45
2023/10/26 01:38:31;;;;;;;0.90;0.60;;;;;;;;;;5127656;27;20205;-44
2023/10/26 01:40:59;;;;;;;0.40;0.40;;;;;;;;;;5124134;27;20208;-45
2023/10/26 01:43:26;;;;;;;0.67;0.40;;;;;;;;;;5124588;27;20211;-43
2023/10/26 01:45:53;;;;;;;0.73;0.40;;;;;;;;;;5131728;27;20230;-42
2023/10/26 01:48:21;;;;;;;0.50;0.50;;;;;;;;;;5122834;27;20733;-43
2023/10/26 01:50:48;;;;;;;0.40;0.40;;;;;;;;;;5128656;27;20203;-40
2023/10/26 01:53:15;;;;;;;1.83;0.50;;;;;;;;;;5131477;27;20526;-42
2023/10/26 01:55:43;;;;;;;0.93;0.70;;;;;;;;;;5124570;27;20214;-45
2023/10/26 01:58:11;;;;;;;2.97;0.50;;;;;;;;;;5122653;27;20290;-40
2023/10/26 02:00:38;;;;;;;0.40;0.40;;;;;;;;;;5112768;27;20643;-43
2023/10/26 02:03:05;;;;;;;1.00;0.90;;;;;;;;;;5119291;27;20207;-46
2023/10/26 02:05:32;;;;;;;0.47;0.40;;;;;;;;;;5112064;27;20230;-44
2023/10/26 02:08:00;;;;;;;2.00;0.50;;;;;;;;;;5118834;27;20208;-45
2023/10/26 02:10:29;;;;;;;0.80;0.50;;;;;;;;;;5113364;27;20229;-43
2023/10/26 02:12:56;;;;;;;0.67;0.40;;;;;;;;;;5125096;27;20294;-45
2023/10/26 02:15:25;;;;;;;2.30;0.60;;;;;;;;;;5122267;27;20522;-45
2023/10/26 02:17:52;;;;;;;2.13;0.50;;;;;;;;;;5119421;27;20275;-42
2023/10/26 02:20:19;;;;;;;2.10;0.50;;;;;;;;;;5117643;27;20264;-44
2023/10/26 02:22:46;;;;;;;2.37;0.60;;;;;;;;;;5115575;27;20215;-44
2023/10/26 02:25:14;;;;;;;1.17;0.50;;;;;;;;;;5124078;27;20227;-42
2023/10/26 02:27:41;;;;;;;1.23;0.40;;;;;;;;;;5122591;27;20269;-46
2023/10/26 02:30:09;;;;;;;0.80;0.73;;;;;;;;;;5126411;27;20262;-45
2023/10/26 02:32:37;;;;;;;0.30;0.30;;;;;;;;;;5131065;27;20210;-42
2023/10/26 02:35:05;;;;;;;3.00;0.50;;;;;;;;;;5127007;27;20209;-44
2023/10/26 02:37:38;;;;;;;1.30;0.40;;;;;;;;;;5125152;27;20203;-44
2023/10/26 02:40:05;;;;;;;0.77;0.50;;;;;;;;;;5115978;27;20319;-40
2023/10/26 02:42:33;;;;;;;1.20;0.33;;;;;;;;;;5128188;27;20199;-45
2023/10/26 02:45:00;;;;;;;0.40;0.40;;;;;;;;;;5131177;27;20233;-43
2023/10/26 02:47:30;;;;;;;0.33;0.33;;;;;;;;;;5124990;27;20199;-44
2023/10/26 02:49:58;;;;;;;1.80;0.60;;;;;;;;;;5120774;27;20251;-46
2023/10/26 02:52:25;;;;;;;0.60;0.60;;;;;;;;;;5129892;27;20398;-44
2023/10/26 02:54:52;;;;;;;0.43;0.40;;;;;;;;;;5135801;27;20290;-44
2023/10/26 02:57:19;;;;;;;1.87;0.43;;;;;;;;;;5123822;27;20687;-46
2023/10/26 02:59:46;;;;;;;0.30;0.30;;;;;;;;;;5133874;27;20230;-44
2023/10/26 03:02:14;;;;;;;0.33;0.33;;;;;;;;;;5131893;27;20220;-45
2023/10/26 03:04:42;;;;;;;0.53;0.43;;;;;;;;;;5131512;27;20203;-45
2023/10/26 03:07:12;;;;;;;2.40;0.50;;;;;;;;;;5128079;27;20261;-45
2023/10/26 03:09:39;;;;;;;0.77;0.40;;;;;;;;;;5128368;27;20314;-42
2023/10/26 03:12:07;;;;;;;0.60;0.60;;;;;;;;;;5123156;27;20204;-39
2023/10/26 03:14:34;;;;;;;0.53;0.50;;;;;;;;;;5127584;27;20199;-41
2023/10/26 03:17:01;;;;;;;1.80;0.40;;;;;;;;;;5121491;27;20563;-43
2023/10/26 03:19:28;;;;;;;2.57;0.60;;;;;;;;;;5129045;27;20219;-46
2023/10/26 03:21:56;;;;;;;0.40;0.30;;;;;;;;;;5125598;27;20207;-43
2023/10/26 03:24:24;;;;;;;0.30;0.30;;;;;;;;;;5125226;27;20195;-46
2023/10/26 03:26:52;;;;;;;1.10;0.30;;;;;;;;;;5118135;27;20224;-44
2023/10/26 03:29:21;;;;;;;0.70;0.70;;;;;;;;;;5121604;27;20222;-42
2023/10/26 03:31:48;;;;;;;0.40;0.40;;;;;;;;;;5133663;27;20203;-43
2023/10/26 03:34:15;;;;;;;1.10;0.60;;;;;;;;;;5128026;27;20199;-42
2023/10/26 03:36:42;;;;;;;0.80;0.63;;;;;;;;;;5129873;27;20203;-42
2023/10/26 03:39:09;;;;;;;1.43;0.60;;;;;;;;;;5133275;27;20657;-43
2023/10/26 03:41:38;;;;;;;0.50;0.50;;;;;;;;;;5124241;27;20210;-43
2023/10/26 03:44:06;;;;;;;1.47;0.50;;;;;;;;;;5126550;27;20199;-43
2023/10/26 03:46:35;;;;;;;0.50;0.50;;;;;;;;;;5131880;27;20246;-41
2023/10/26 03:49:02;;;;;;;0.63;0.60;;;;;;;;;;5132912;27;20302;-42
2023/10/26 03:51:29;;;;;;;1.43;0.50;;;;;;;;;;5124754;27;20200;-40
2023/10/26 03:53:56;;;;;;;0.30;0.30;;;;;;;;;;5131489;27;20214;-44
2023/10/26 03:56:23;;;;;;;0.43;0.40;;;;;;;;;;5124627;27;20199;-43
2023/10/26 03:58:52;;;;;;;0.40;0.30;;;;;;;;;;5131438;27;20673;-44
2023/10/26 04:01:19;;;;;;;0.70;0.70;;;;;;;;;;5118670;27;20195;-47
2023/10/26 04:03:46;;;;;;;0.63;0.63;;;;;;;;;;5123379;27;20199;-43
2023/10/26 04:06:13;;;;;;;0.57;0.57;;;;;;;;;;5124273;27;20219;-45
2023/10/26 04:08:40;;;;;;;0.70;0.70;;;;;;;;;;5133082;27;20246;-41
2023/10/26 04:11:07;;;;;;;0.50;0.50;;;;;;;;;;5124320;27;20292;-44
2023/10/26 04:13:35;;;;;;;0.70;0.70;;;;;;;;;;5125782;27;20209;-41
2023/10/26 04:16:04;;;;;;;0.63;0.63;;;;;;;;;;5145377;27;20206;-44
2023/10/26 04:18:39;;;;;;;0.50;0.50;;;;;;;;;;5137877;27;20286;-45
2023/10/26 04:21:07;;;;;;;0.70;0.70;;;;;;;;;;5117348;27;20654;-36
2023/10/26 04:23:34;;;;;;;0.93;0.60;;;;;;;;;;5129205;27;20286;-40
2023/10/26 04:26:01;;;;;;;2.10;0.53;;;;;;;;;;5135682;27;20672;-40
2023/10/26 04:28:28;;;;;;;1.70;0.47;;;;;;;;;;5131856;27;20616;-39
2023/10/26 04:30:55;;;;;;;0.50;0.50;;;;;;;;;;5132369;27;20301;-41
2023/10/26 04:33:24;;;;;;;0.67;0.50;;;;;;;;;;5121344;27;20210;-43
2023/10/26 04:35:51;;;;;;;0.77;0.77;;;;;;;;;;5130589;27;20203;-41
2023/10/26 04:38:18;;;;;;;2.37;0.63;;;;;;;;;;5141440;27;20659;-43
2023/10/26 04:40:45;;;;;;;0.80;0.80;;;;;;;;;;5123351;27;20214;-43
2023/10/26 04:43:13;;;;;;;0.67;0.67;;;;;;;;;;5125309;27;20222;-43
2023/10/26 04:45:40;;;;;;;4.00;0.90;;;;;;;;;;5130610;27;20685;-46
2023/10/26 04:48:08;;;;;;;0.70;0.70;;;;;;;;;;5132382;27;20415;-41
2023/10/26 04:50:36;;;;;;;2.27;0.57;;;;;;;;;;5118054;27;20223;-39
2023/10/26 04:53:04;;;;;;;0.80;0.60;;;;;;;;;;5124838;27;20211;-44
2023/10/26 04:55:34;;;;;;;3.87;1.70;;;;;;;;;;5126136;27;20214;-45
2023/10/26 04:58:02;;;;;;;8.97;8.37;;;;;;;;;;5126981;27;20203;-42
2023/10/26 05:00:29;;;;;;;4.07;3.83;;;;;;;;;;5131878;27;20249;-42
2023/10/26 05:02:56;;;;;;;6.47;5.80;;;;;;;;;;5132083;27;20207;-43
2023/10/26 05:05:23;;;;;;;6.07;5.77;;;;;;;;;;5128601;27;20199;-44
2023/10/26 05:07:52;;;;;;;1.37;1.27;;;;;;;;;;5129462;27;20230;-42
2023/10/26 05:10:21;;;;;;;4.73;4.53;;;;;;;;;;5123764;27;20215;-46
2023/10/26 05:12:48;;;;;;;2.33;1.23;;;;;;;;;;5127686;27;20233;-42
2023/10/26 05:15:15;;;;;;;4.10;3.90;;;;;;;;;;5129457;27;20206;-43
2023/10/26 05:17:42;;;;;;;3.27;1.20;;;;;;;;;;5129540;27;20528;-36
2023/10/26 05:20:10;;;;;;;3.10;1.03;;;;;;;;;;5128048;27;20334;-43
2023/10/26 05:22:37;;;;;;;1.13;1.10;;;;;;;;;;5120557;27;20596;-46
2023/10/26 05:25:06;;;;;;;1.53;1.53;;;;;;;;;;5130685;27;20207;-45
2023/10/26 05:27:33;;;;;;;1.37;1.10;;;;;;;;;;5132389;27;20223;-39
2023/10/26 05:30:00;;;;;;;2.40;2.30;;;;;;;;;;5144086;27;20227;-40
2023/10/26 05:32:27;;;;;;;1.70;1.50;;;;;;;;;;5138321;27;20203;-45
2023/10/26 05:34:55;;;;;;;1.33;1.33;;;;;;;;;;5124529;27;20211;-41
2023/10/26 05:37:22;;;;;;;1.37;1.30;;;;;;;;;;5129139;27;20210;-45
2023/10/26 05:39:49;;;;;;;1.90;1.70;;;;;;;;;;5129501;27;20223;-41
2023/10/26 05:42:18;;;;;;;2.23;1.57;;;;;;;;;;5114319;27;20201;-45
2023/10/26 05:44:45;;;;;;;1.57;1.47;;;;;;;;;;5129449;27;20209;-43
2023/10/26 05:47:12;;;;;;;1.40;1.20;;;;;;;;;;5121152;27;20222;-43
2023/10/26 05:49:39;;;;;;;1.20;0.93;;;;;;;;;;5127653;27;20218;-39
2023/10/26 05:52:06;;;;;;;1.70;1.37;;;;;;;;;;5127448;27;20203;-42
2023/10/26 05:54:33;;;;;;;1.20;1.10;;;;;;;;;;5133607;27;20195;-42
2023/10/26 05:57:01;;;;;;;2.10;1.30;;;;;;;;;;5125177;27;20207;-45
2023/10/26 05:59:29;;;;;;;1.10;1.10;;;;;;;;;;5133142;27;20223;-44
2023/10/26 06:01:56;;;;;;;1.30;1.20;;;;;;;;;;5132960;27;20196;-43
2023/10/26 06:04:24;;;;;;;0.93;0.93;;;;;;;;;;5129618;27;20264;-45
2023/10/26 06:06:52;;;;;;;1.30;1.03;;;;;;;;;;5130759;27;20571;-42
2023/10/26 06:09:19;;;;;;;2.20;1.10;;;;;;;;;;5133125;27;20247;-41
2023/10/26 06:11:46;;;;;;;1.30;1.20;;;;;;;;;;5122562;27;20235;-41
2023/10/26 06:14:13;;;;;;;1.23;1.13;;;;;;;;;;5128312;27;20536;-43
2023/10/26 06:16:41;;;;;;;2.30;1.10;;;;;;;;;;5133394;27;20195;-42
2023/10/26 06:19:10;;;;;;;1.30;1.20;;;;;;;;;;5132898;27;20230;-43
2023/10/26 06:21:37;;;;;;;1.13;1.00;;;;;;;;;;5125262;27;20203;-40
2023/10/26 06:24:05;;;;;;;1.63;1.00;;;;;;;;;;5131143;27;20297;-41
2023/10/26 06:26:32;;;;;;;1.53;1.43;;;;;;;;;;5122809;27;20228;-43
2023/10/26 06:28:59;;;;;;;1.43;1.10;;;;;;;;;;5130653;27;20715;-42
2023/10/26 06:31:27;;;;;;;1.43;1.33;;;;;;;;;;5140435;27;20210;-41
2023/10/26 06:33:55;;;;;;;1.37;1.17;;;;;;;;;;5129377;27;20216;-42
2023/10/26 06:36:22;;;;;;;1.67;1.30;;;;;;;;;;5128523;27;20202;-44
2023/10/26 06:38:49;;;;;;;0.90;0.90;;;;;;;;;;5134598;27;20229;-42
2023/10/26 06:41:16;;;;;;;1.23;1.13;;;;;;;;;;5120866;27;20864;-41
2023/10/26 06:43:43;;;;;;;1.53;0.90;;;;;;;;;;5130468;27;20551;-37
2023/10/26 06:46:10;;;;;;;1.40;1.07;;;;;;;;;;5142700;27;20217;-46
2023/10/26 06:48:38;;;;;;;3.47;1.30;;;;;;;;;;5133456;27;20230;-42
2023/10/26 06:51:06;;;;;;;1.40;1.27;;;;;;;;;;5130554;27;20203;-42
2023/10/26 06:53:33;;;;;;;2.20;1.33;;;;;;;;;;5135213;27;20207;-43
2023/10/26 06:56:00;;;;;;;1.60;1.50;;;;;;;;;;5125077;27;20210;-41
2023/10/26 06:58:28;;;;;;;2.03;1.30;;;;;;;;;;5125987;27;20203;-43
2023/10/26 07:00:55;;;;;;;1.50;1.30;;;;;;;;;;5132120;27;20259;-44
2023/10/26 07:03:22;;;;;;;3.53;1.27;;;;;;;;;;5130515;27;20207;-45
2023/10/26 07:05:50;;;;;;;1.30;1.10;;;;;;;;;;5131688;27;20191;-43
2023/10/26 07:08:19;;;;;;;2.03;1.50;;;;;;;;;;5134106;27;20215;-42
2023/10/26 07:10:46;;;;;;;1.77;1.50;;;;;;;;;;5127071;27;20204;-43
2023/10/26 07:13:13;;;;;;;2.73;1.60;;;;;;;;;;5121671;27;20653;-46
2023/10/26 07:15:40;;;;;;;2.23;1.60;;;;;;;;;;5134684;27;20206;-40
2023/10/26 07:18:08;;;;;;;3.83;1.67;;;;;;;;;;5133948;27;20195;-38
2023/10/26 07:20:35;;;;;;;5.43;1.97;;;;;;;;;;5127091;27;20304;-41
2023/10/26 07:23:02;;;;;;;2.03;1.53;;;;;;;;;;5134394;27;20205;-40
2023/10/26 07:25:31;;;;;;;3.77;1.87;;;;;;;;;;5129441;27;20199;-46
2023/10/26 07:27:58;;;;;;;4.23;1.60;;;;;;;;;;5119015;27;20685;-44
2023/10/26 07:30:25;;;;;;;2.27;2.03;;;;;;;;;;5133915;27;20231;-41
2023/10/26 07:32:52;;;;;;;3.33;1.90;;;;;;;;;;5142479;27;20921;-41
2023/10/26 07:35:20;;;;;;;2.43;1.67;;;;;;;;;;5118697;27;20215;-45
2023/10/26 07:37:47;;;;;;;2.70;1.77;;;;;;;;;;5131384;27;20202;-39
2023/10/26 07:40:13;;;;;;;1.73;1.43;;;;;;;;;;5130508;27;20938;-46
2023/10/26 07:42:42;;;;;;;3.47;1.83;;;;;;;;;;5124765;27;20268;-44
2023/10/26 07:45:09;;;;;;;5.70;1.97;;;;;;;;;;5133773;27;20313;-39
2023/10/26 07:47:36;;;;;;;1.70;1.60;;;;;;;;;;5133994;27;20219;-42
2023/10/26 07:50:04;;;;;;;2.50;2.03;;;;;;;;;;5125818;27;20323;-45
2023/10/26 07:52:31;;;;;;;2.50;1.60;;;;;;;;;;5133644;27;20202;-43
2023/10/26 07:54:59;;;;;;;2.40;1.90;;;;;;;;;;5144986;27;20214;-40
2023/10/26 07:57:26;;;;;;;3.20;1.50;;;;;;;;;;5133911;27;20199;-45
2023/10/26 07:59:55;;;;;;;2.03;1.70;;;;;;;;;;5137997;27;20238;-43
2023/10/26 08:02:22;;;;;;;3.50;1.93;;;;;;;;;;5126243;27;20199;-41
2023/10/26 08:04:50;;;;;;;2.60;1.60;;;;;;;;;;5130086;27;20203;-36
2023/10/26 08:07:17;;;;;;;2.63;1.93;;;;;;;;;;5134277;27;20214;-44
2023/10/26 08:09:44;;;;;;;3.93;2.07;;;;;;;;;;5134195;27;20219;-40
2023/10/26 08:12:12;;;;;;;7.17;2.50;;;;;;;;;;5119374;27;20214;-41
2023/10/26 08:14:40;;;;;;;4.40;2.10;;;;;;;;;;5127104;27;20294;-44
2023/10/26 08:17:08;;;;;;;2.70;1.63;;;;;;;;;;5134617;27;20211;-42
2023/10/26 08:19:35;;;;;;;4.33;1.80;;;;;;;;;;5128444;27;20551;-44
2023/10/26 08:22:02;;;;;;;1.53;1.43;;;;;;;;;;5123263;27;20267;-44
2023/10/26 08:24:29;;;;;;;1.60;1.40;;;;;;;;;;5133394;27;20616;-38
2023/10/26 08:26:57;;;;;;;2.77;2.47;;;;;;;;;;5128417;27;20278;-40
2023/10/26 08:29:25;;;;;;;5.20;2.30;;;;;;;;;;5133268;27;20226;-38
2023/10/26 08:31:52;;;;;;;2.80;1.60;;;;;;;;;;5133360;27;20653;-42
2023/10/26 08:34:20;;;;;;;4.33;2.10;;;;;;;;;;5126764;27;20196;-40
2023/10/26 08:36:47;;;;;;;5.13;2.23;;;;;;;;;;5131731;27;20278;-41
2023/10/26 08:39:16;;;;;;;2.80;2.40;;;;;;;;;;5139413;27;20330;-41
2023/10/26 08:41:47;;;;;;;2.27;1.80;;;;;;;;;;5116836;27;20253;-46
2023/10/26 08:44:14;;;;;;;3.53;2.57;;;;;;;;;;5125143;27;20214;-42
2023/10/26 08:46:42;;;;;;;6.57;3.07;;;;;;;;;;5132624;27;20660;-42
2023/10/26 08:49:10;;;;;;;8.40;3.60;;;;;;;;;;5132109;27;20732;-43
2023/10/26 08:51:38;;;;;;;4.13;3.00;;;;;;;;;;5125965;27;20257;-40
2023/10/26 08:54:06;;;;;;;6.13;2.83;;;;;;;;;;5130301;27;20219;-44
2023/10/26 08:56:33;;;;;;;6.97;2.80;;;;;;;;;;5124115;27;20203;-40
2023/10/26 08:59:03;;;;;;;3.17;2.40;;;;;;;;;;5125768;27;20222;-42
2023/10/26 09:01:30;;;;;;;3.67;2.00;;;;;;;;;;5132976;27;20230;-45
2023/10/26 09:03:57;;;;;;;3.47;2.57;;;;;;;;;;5142253;27;20260;-41
2023/10/26 09:06:24;;;;;;;5.80;2.40;;;;;;;;;;5124737;27;20214;-42
2023/10/26 09:09:03;;;;;;;3.53;2.57;;;;;;;;;;5129697;27;20226;-45
2023/10/26 09:11:30;;;;;;;2.77;2.00;;;;;;;;;;5121350;27;20280;-43
2023/10/26 09:14:12;;;;;;;4.37;2.00;;;;;;;;;;5125169;27;20233;-42
2023/10/26 09:16:40;;;;;;;3.27;1.57;;;;;;;;;;5133008;27;20198;-39
2023/10/26 09:19:08;;;;;;;2.20;1.80;;;;;;;;;;5145441;27;20893;-43
2023/10/26 09:21:49;;;;;;;2.23;2.03;;;;;;;;;;5137716;27;20209;-44
2023/10/26 09:24:24;;;;;;;4.10;2.23;;;;;;;;;;5133150;27;20231;-39
2023/10/26 09:26:52;;;;;;;3.27;1.70;;;;;;;;;;5128391;27;20237;-43
2023/10/26 09:29:20;;;;;;;3.00;2.00;;;;;;;;;;5136690;27;20254;-46
2023/10/26 09:31:54;;;;;;;2.07;1.87;;;;;;;;;;5136484;27;20222;-43
2023/10/26 09:34:23;;;;;;;3.27;2.40;;;;;;;;;;5130154;27;20203;-41
2023/10/26 09:37:04;;;;;;;4.30;2.23;;;;;;;;;;5136015;27;20548;-39
2023/10/26 09:39:34;;;;;;;2.53;2.33;;;;;;;;;;5136012;27;20222;-44
2023/10/26 09:42:02;;;;;;;5.60;2.70;;;;;;;;;;5127290;27;20211;-44
2023/10/26 09:44:30;;;;;;;3.73;2.57;;;;;;;;;;5144655;27;20214;-42
2023/10/26 09:46:58;;;;;;;3.10;2.60;;;;;;;;;;5144391;27;20333;-43
2023/10/26 09:49:26;;;;;;;3.53;2.50;;;;;;;;;;5130484;27;20227;-44
2023/10/26 09:51:53;;;;;;;5.63;3.97;;;;;;;;;;5136495;27;20274;-42
2023/10/26 09:54:21;;;;;;;5.57;2.80;;;;;;;;;;5138667;27;20484;-41
2023/10/26 09:56:55;;;;;;;5.37;3.23;;;;;;;;;;5125743;27;20220;-41
2023/10/26 09:59:23;;;;;;;4.63;3.37;;;;;;;;;;5128264;27;20226;-37
2023/10/26 10:01:50;;;;;;;4.97;2.70;;;;;;;;;;5136450;27;20229;-38
2023/10/26 10:04:18;;;;;;;6.17;2.97;;;;;;;;;;5136867;27;20208;-43
2023/10/26 10:06:49;;;;;;;4.60;2.13;;;;;;;;;;5131725;27;20565;-43
2023/10/26 10:09:18;;;;;;;5.33;2.30;;;;;;;;;;5135435;27;20234;-44
2023/10/26 10:11:46;;;;;;;6.33;3.30;;;;;;;;;;5132041;27;20299;-44
2023/10/26 10:14:28;;;;;;;4.30;3.23;;;;;;;;;;5137209;27;20223;-44
2023/10/26 10:16:56;;;;;;;5.03;3.07;;;;;;;;;;5149048;27;20207;-41
2023/10/26 10:19:25;;;;;;;4.07;3.07;;;;;;;;;;5126500;27;20235;-43
2023/10/26 10:21:52;;;;;;;6.07;3.17;;;;;;;;;;5134874;27;20201;-43
2023/10/26 10:24:37;;;;;;;3.50;2.77;;;;;;;;;;5143760;27;20194;-44
2023/10/26 10:27:11;;;;;;;3.73;2.80;;;;;;;;;;5127046;27;20208;-44
2023/10/26 10:29:38;;;;;;;5.17;3.40;;;;;;;;;;5134824;27;20222;-40
2023/10/26 10:32:07;;;;;;;3.30;3.00;;;;;;;;;;5143082;27;20647;-45
2023/10/26 10:34:42;;;;;;;4.47;2.93;;;;;;;;;;5143880;27;20208;-40
2023/10/26 10:37:13;;;;;;;3.43;2.63;;;;;;;;;;5123597;27;20206;-41
2023/10/26 10:40:01;;;;;;;8.03;2.60;;;;;;;;;;5139790;27;20218;-43
2023/10/26 10:42:29;;;;;;;4.47;2.90;;;;;;;;;;5114470;27;20211;-44
2023/10/26 10:44:57;;;;;;;5.40;3.20;;;;;;;;;;5137630;27;20209;-42
2023/10/26 10:47:28;;;;;;;2.87;2.40;;;;;;;;;;5146258;27;20208;-38
2023/10/26 10:50:10;;;;;;;3.33;2.90;;;;;;;;;;5130132;27;20764;-43
2023/10/26 10:52:38;;;;;;;3.50;2.13;;;;;;;;;;5126982;27;20191;-42
2023/10/26 10:55:05;;;;;;;7.57;2.83;;;;;;;;;;5132415;27;20301;-46
2023/10/26 10:57:33;;;;;;;3.17;2.83;;;;;;;;;;5113630;27;20217;-42
2023/10/26 11:00:01;;;;;;;3.80;2.97;;;;;;;;;;5128713;27;20229;-41
2023/10/26 11:02:28;;;;;;;2.87;2.20;;;;;;;;;;5134196;27;20207;-42
2023/10/26 11:04:56;;;;;;;3.53;2.63;;;;;;;;;;5127717;27;20286;-46
2023/10/26 11:07:26;;;;;;;3.20;2.80;;;;;;;;;;5135278;27;20299;-43
2023/10/26 11:09:56;;;;;;;2.70;2.03;;;;;;;;;;5139593;27;20238;-39
2023/10/26 11:12:23;;;;;;;1.97;1.87;;;;;;;;;;5121647;27;20218;-40
2023/10/26 11:14:53;;;;;;;2.10;1.90;;;;;;;;;;5133958;27;20207;-45
2023/10/26 11:17:20;;;;;;;1.53;1.43;;;;;;;;;;5132383;27;20204;-42
2023/10/26 11:19:48;;;;;;;1.83;1.60;;;;;;;;;;5130350;27;20220;-45
2023/10/26 11:22:15;;;;;;;1.60;1.50;;;;;;;;;;5126493;27;20231;-44
2023/10/26 11:24:43;;;;;;;2.10;1.53;;;;;;;;;;5134237;27;20199;-41
2023/10/26 11:27:11;;;;;;;2.10;1.37;;;;;;;;;;5120560;27;20420;-43
2023/10/26 11:29:38;;;;;;;3.20;1.10;;;;;;;;;;5134371;27;20227;-40
2023/10/26 11:32:18;;;;;;;1.50;1.17;;;;;;;;;;5135158;27;20745;-40
2023/10/26 11:35:00;;;;;;;1.57;1.30;;;;;;;;;;5137602;27;20278;-42
2023/10/26 11:37:27;;;;;;;1.40;1.30;;;;;;;;;;5131126;27;20664;-44
2023/10/26 11:39:54;;;;;;;1.13;1.10;;;;;;;;;;5134832;27;20227;-45
2023/10/26 11:42:21;;;;;;;2.50;1.00;;;;;;;;;;5128319;27;20203;-42
2023/10/26 11:44:57;;;;;;;1.00;1.00;;;;;;;;;;5127584;27;20210;-46
2023/10/26 11:47:26;;;;;;;1.20;1.10;;;;;;;;;;5133360;27;20756;-40
2023/10/26 11:49:53;;;;;;;1.00;1.00;;;;;;;;;;5132267;27;20229;-44
2023/10/26 11:52:22;;;;;;;1.57;1.03;;;;;;;;;;5127872;27;20293;-40
2023/10/26 11:54:55;;;;;;;1.50;1.40;;;;;;;;;;5133971;27;20210;-43
2023/10/26 11:57:23;;;;;;;0.90;0.90;;;;;;;;;;5122428;27;20230;-39
2023/10/26 11:59:50;;;;;;;0.97;0.93;;;;;;;;;;5135174;27;20249;-46
2023/10/26 12:02:17;;;;;;;1.10;1.10;;;;;;;;;;5132911;27;20207;-42
2023/10/26 12:04:50;;;;;;;0.70;0.70;;;;;;;;;;5128897;27;20256;-41
2023/10/26 12:07:17;;;;;;;0.90;0.90;;;;;;;;;;5145641;27;20203;-42
2023/10/26 12:09:44;;;;;;;0.90;0.90;;;;;;;;;;5132956;27;20227;-41
2023/10/26 12:12:12;;;;;;;1.10;1.10;;;;;;;;;;5123844;27;20215;-43
2023/10/26 12:14:39;;;;;;;1.17;1.17;;;;;;;;;;5133689;27;20248;-43
2023/10/26 12:17:07;;;;;;;0.87;0.87;;;;;;;;;;5133309;27;20207;-43
2023/10/26 12:19:34;;;;;;;2.10;1.30;;;;;;;;;;5132276;27;20254;-44
2023/10/26 12:22:02;;;;;;;1.13;1.10;;;;;;;;;;5123118;27;20199;-44
2023/10/26 12:24:30;;;;;;;1.10;1.00;;;;;;;;;;5132714;27;20362;-45
2023/10/26 12:26:57;;;;;;;1.40;1.13;;;;;;;;;;5128853;27;20238;-42
2023/10/26 12:29:24;;;;;;;1.10;0.90;;;;;;;;;;5133153;27;20224;-41
2023/10/26 12:31:51;;;;;;;1.07;0.97;;;;;;;;;;5139589;27;20221;-40
2023/10/26 12:34:19;;;;;;;0.80;0.80;;;;;;;;;;5141091;27;20225;-42
2023/10/26 12:36:46;;;;;;;1.20;1.10;;;;;;;;;;5126011;27;20287;-40
2023/10/26 12:39:14;;;;;;;1.27;1.20;;;;;;;;;;5140462;27;20222;-41
2023/10/26 12:41:43;;;;;;;1.00;1.00;;;;;;;;;;5131199;27;20210;-40
2023/10/26 12:44:10;;;;;;;1.50;1.03;;;;;;;;;;5145073;27;20306;-42
2023/10/26 12:46:37;;;;;;;1.63;1.10;;;;;;;;;;5135673;27;20202;-40
2023/10/26 12:49:04;;;;;;;1.20;1.10;;;;;;;;;;5137381;27;20231;-46
2023/10/26 12:51:31;;;;;;;1.03;1.00;;;;;;;;;;5128505;27;20203;-40
2023/10/26 12:53:58;;;;;;;1.13;1.03;;;;;;;;;;5131162;27;20264;-40
2023/10/26 12:56:27;;;;;;;1.90;1.30;;;;;;;;;;5120863;27;20205;-43
2023/10/26 12:58:54;;;;;;;2.77;1.10;;;;;;;;;;5140566;27;20578;-41
2023/10/26 13:01:21;;;;;;;1.37;1.27;;;;;;;;;;5132484;27;20235;-45
2023/10/26 13:03:48;;;;;;;1.40;1.23;;;;;;;;;;5130280;27;20206;-43
2023/10/26 13:06:15;;;;;;;1.57;1.40;;;;;;;;;;5127812;27;20203;-44
2023/10/26 13:08:43;;;;;;;1.30;1.20;;;;;;;;;;5132026;27;20223;-44
2023/10/26 13:11:12;;;;;;;1.17;1.00;;;;;;;;;;5121912;27;20212;-41
2023/10/26 13:13:40;;;;;;;1.10;1.00;;;;;;;;;;5132049;27;20268;-44
2023/10/26 13:16:09;;;;;;;1.20;1.10;;;;;;;;;;5132240;27;20203;-44
2023/10/26 13:18:36;;;;;;;1.20;0.90;;;;;;;;;;5129054;27;20220;-40
2023/10/26 13:21:04;;;;;;;2.37;1.30;;;;;;;;;;5134172;27;20624;-44
2023/10/26 13:23:31;;;;;;;2.77;2.20;;;;;;;;;;5131508;27;20694;-43
2023/10/26 13:25:59;;;;;;;1.43;1.30;;;;;;;;;;5126318;27;20225;-41
2023/10/26 13:28:26;;;;;;;1.27;1.10;;;;;;;;;;5138486;27;20234;-41
2023/10/26 13:30:54;;;;;;;1.10;1.00;;;;;;;;;;5131815;27;20575;-42
2023/10/26 13:33:22;;;;;;;0.83;0.77;;;;;;;;;;5129532;27;20239;-46
2023/10/26 13:35:50;;;;;;;1.00;1.00;;;;;;;;;;5127493;27;20199;-43
2023/10/26 13:38:17;;;;;;;1.57;1.00;;;;;;;;;;5131440;27;20207;-42
2023/10/26 13:40:45;;;;;;;0.90;0.90;;;;;;;;;;5125561;27;20200;-44
2023/10/26 13:43:15;;;;;;;1.13;1.07;;;;;;;;;;5124493;27;20211;-42
2023/10/26 13:45:42;;;;;;;2.20;1.60;;;;;;;;;;5122698;27;20303;-47
2023/10/26 13:48:11;;;;;;;1.50;1.40;;;;;;;;;;5124891;27;20282;-46
2023/10/26 13:50:39;;;;;;;1.53;1.23;;;;;;;;;;5128599;27;20578;-48
2023/10/26 13:53:07;;;;;;;1.30;1.20;;;;;;;;;;5120319;27;20265;-45
2023/10/26 13:55:35;;;;;;;1.33;1.00;;;;;;;;;;5117572;27;20669;-45
2023/10/26 13:58:02;;;;;;;1.77;1.57;;;;;;;;;;5131990;27;20211;-40
2023/10/26 14:00:29;;;;;;;1.83;1.70;;;;;;;;;;5131492;27;20423;-44
2023/10/26 14:02:57;;;;;;;1.50;1.43;;;;;;;;;;5129639;27;20214;-41
2023/10/26 14:05:25;;;;;;;1.80;1.70;;;;;;;;;;5128468;27;20632;-41
2023/10/26 14:07:52;;;;;;;2.77;1.90;;;;;;;;;;5140060;27;20565;-44
2023/10/26 14:10:20;;;;;;;2.33;2.17;;;;;;;;;;5125161;27;20219;-41
2023/10/26 14:12:47;;;;;;;2.67;2.27;;;;;;;;;;5130505;27;20199;-39
2023/10/26 14:15:14;;;;;;;1.70;1.60;;;;;;;;;;5135352;27;20298;-46
2023/10/26 14:17:41;;;;;;;2.27;1.80;;;;;;;;;;5135293;27;20268;-44
2023/10/26 14:20:10;;;;;;;2.00;1.80;;;;;;;;;;5130065;27;20298;-45
2023/10/26 14:22:38;;;;;;;2.37;2.17;;;;;;;;;;5130800;27;20203;-43
2023/10/26 14:25:06;;;;;;;2.73;2.23;;;;;;;;;;5134178;27;20298;-47
2023/10/26 14:27:33;;;;;;;2.10;1.90;;;;;;;;;;5121736;27;20293;-40
2023/10/26 14:30:00;;;;;;;2.23;2.03;;;;;;;;;;5134530;27;20299;-41
2023/10/26 14:32:27;;;;;;;2.30;2.20;;;;;;;;;;5134064;27;20654;-40
2023/10/26 14:34:54;;;;;;;2.57;2.30;;;;;;;;;;5129910;27;20494;-46
2023/10/26 14:37:21;;;;;;;3.87;2.27;;;;;;;;;;5133844;27;20243;-40
2023/10/26 14:39:50;;;;;;;2.67;2.30;;;;;;;;;;5125364;27;20314;-42
2023/10/26 14:42:17;;;;;;;3.00;2.43;;;;;;;;;;5122954;27;20294;-44
2023/10/26 14:44:44;;;;;;;3.13;2.80;;;;;;;;;;5130105;27;20203;-44
2023/10/26 14:47:11;;;;;;;3.27;2.07;;;;;;;;;;5134357;27;20235;-42